createdAt,value
2017-03-10T00:00:19.330Z,0
2017-03-10T00:00:59.717Z,0
2017-03-10T00:01:40.141Z,0
2017-03-10T00:02:20.540Z,0
2017-03-10T00:03:00.917Z,0
2017-03-10T00:03:41.316Z,0
2017-03-10T00:04:21.745Z,0
2017-03-10T00:05:02.140Z,0
2017-03-10T00:05:42.544Z,0
2017-03-10T00:06:23.048Z,0
2017-03-10T00:07:03.423Z,0
2017-03-10T00:07:43.864Z,0
2017-03-10T00:08:24.242Z,0
2017-03-10T00:09:04.613Z,0
2017-03-10T00:09:45.051Z,0
2017-03-10T00:10:25.448Z,0
2017-03-10T00:11:05.884Z,0
2017-03-10T00:11:46.276Z,0
2017-03-10T00:12:26.713Z,0
2017-03-10T00:13:07.144Z,0
2017-03-10T00:13:47.577Z,0
2017-03-10T00:14:27.989Z,0
2017-03-10T00:15:08.401Z,0
2017-03-10T00:15:48.807Z,0
2017-03-10T00:16:29.221Z,0
2017-03-10T00:17:09.626Z,0
2017-03-10T00:17:50.045Z,0
2017-03-10T00:18:30.495Z,0
2017-03-10T00:19:10.891Z,0
2017-03-10T00:21:38.740Z,0
2017-03-10T00:22:19.113Z,0
2017-03-10T00:22:59.498Z,0
2017-03-10T00:23:39.935Z,0
2017-03-10T00:24:20.321Z,0
2017-03-10T00:25:00.756Z,0
2017-03-10T00:25:41.147Z,0
2017-03-10T00:26:21.708Z,0
2017-03-10T00:27:02.097Z,0
2017-03-10T00:27:42.457Z,0
2017-03-10T00:28:22.864Z,0
2017-03-10T00:29:03.304Z,0
2017-03-10T00:29:43.682Z,0
2017-03-10T00:30:24.095Z,0
2017-03-10T00:31:04.548Z,0
2017-03-10T00:31:44.936Z,0
2017-03-10T00:32:25.351Z,0
2017-03-10T00:33:05.719Z,0
2017-03-10T00:33:46.126Z,0
2017-03-10T00:34:26.541Z,0
2017-03-10T00:35:06.994Z,0
2017-03-10T00:35:47.354Z,0
2017-03-10T00:36:27.756Z,0
2017-03-10T00:37:08.165Z,0
2017-03-10T00:37:48.525Z,0
2017-03-10T00:38:28.946Z,0
2017-03-10T00:39:09.323Z,0
2017-03-10T00:39:49.713Z,0
2017-03-10T00:40:30.122Z,0
2017-03-10T00:41:10.552Z,0
2017-03-10T00:41:50.961Z,0
2017-03-10T00:42:31.367Z,0
2017-03-10T00:43:11.763Z,0
2017-03-10T00:43:52.162Z,0
2017-03-10T00:44:32.584Z,0
2017-03-10T00:45:12.963Z,0
2017-03-10T00:45:53.382Z,0
2017-03-10T00:46:33.740Z,0
2017-03-10T00:47:14.152Z,0
2017-03-10T00:47:54.570Z,0
2017-03-10T00:48:34.974Z,0
2017-03-10T00:49:15.372Z,0
2017-03-10T00:49:55.788Z,0
2017-03-10T00:50:36.199Z,0
2017-03-10T00:51:16.597Z,0
2017-03-10T00:51:56.995Z,0
2017-03-10T00:52:37.395Z,0
2017-03-10T00:53:17.815Z,0
2017-03-10T00:53:58.224Z,0
2017-03-10T00:54:38.629Z,0
2017-03-10T00:55:19.057Z,0
2017-03-10T00:55:59.471Z,0
2017-03-10T00:56:39.888Z,0
2017-03-10T00:57:20.276Z,0
2017-03-10T00:58:00.667Z,0
2017-03-10T00:58:41.087Z,0
2017-03-10T00:59:21.597Z,0
2017-03-10T01:00:01.889Z,0
2017-03-10T01:00:42.297Z,0
2017-03-10T01:01:22.786Z,0
2017-03-10T01:02:03.149Z,0
2017-03-10T01:02:43.573Z,0
2017-03-10T01:03:23.997Z,0
2017-03-10T01:04:04.391Z,0
2017-03-10T01:04:44.792Z,0
2017-03-10T01:05:25.236Z,0
2017-03-10T01:07:53.065Z,0
2017-03-10T01:08:33.456Z,0
2017-03-10T01:09:13.851Z,0
2017-03-10T01:09:54.228Z,0
2017-03-10T01:10:34.658Z,0
2017-03-10T01:11:15.035Z,0
2017-03-10T01:11:55.483Z,0
2017-03-10T01:13:53.054Z,0
2017-03-10T01:14:33.438Z,0
2017-03-10T01:15:13.835Z,0
2017-03-10T01:15:54.238Z,0
2017-03-10T01:16:34.601Z,0
2017-03-10T01:17:15.000Z,0
2017-03-10T01:17:55.458Z,0
2017-03-10T01:18:35.869Z,0
2017-03-10T01:19:16.287Z,0
2017-03-10T01:19:56.751Z,0
2017-03-10T01:20:37.142Z,0
2017-03-10T01:21:17.544Z,0
2017-03-10T01:21:57.971Z,0
2017-03-10T01:22:38.340Z,0
2017-03-10T01:23:18.755Z,0
2017-03-10T01:23:59.140Z,0
2017-03-10T01:24:39.535Z,0
2017-03-10T01:25:19.907Z,0
2017-03-10T01:26:00.373Z,0
2017-03-10T01:26:40.718Z,0
2017-03-10T01:27:21.123Z,0
2017-03-10T01:29:48.932Z,0
2017-03-10T01:30:29.325Z,0
2017-03-10T01:31:09.884Z,0
2017-03-10T01:31:50.296Z,0
2017-03-10T01:32:30.698Z,0
2017-03-10T01:33:11.104Z,0
2017-03-10T01:33:51.489Z,0
2017-03-10T01:34:31.915Z,0
2017-03-10T01:36:24.479Z,0
2017-03-10T01:37:04.818Z,0
2017-03-10T01:37:45.219Z,0
2017-03-10T01:38:25.576Z,0
2017-03-10T01:39:05.993Z,0
2017-03-10T01:39:46.458Z,0
2017-03-10T01:40:26.814Z,0
2017-03-10T01:41:07.715Z,0
2017-03-10T01:41:48.087Z,0
2017-03-10T01:42:28.493Z,0
2017-03-10T01:43:08.899Z,0
2017-03-10T01:43:49.311Z,0
2017-03-10T01:44:29.690Z,0
2017-03-10T01:45:10.069Z,0
2017-03-10T01:45:50.483Z,0
2017-03-10T01:46:30.898Z,0
2017-03-10T01:47:11.296Z,0
2017-03-10T01:47:51.704Z,0
2017-03-10T01:48:32.201Z,0
2017-03-10T01:49:12.601Z,0
2017-03-10T01:49:53.025Z,0
2017-03-10T01:50:33.432Z,0
2017-03-10T01:51:13.843Z,0
2017-03-10T01:51:54.212Z,0
2017-03-10T01:52:34.647Z,0
2017-03-10T01:53:15.032Z,0
2017-03-10T01:53:55.428Z,0
2017-03-10T01:54:35.845Z,0
2017-03-10T01:55:16.244Z,0
2017-03-10T01:55:56.630Z,0
2017-03-10T01:56:37.046Z,0
2017-03-10T01:57:17.430Z,0
2017-03-10T01:57:57.855Z,0
2017-03-10T01:58:38.271Z,0
2017-03-10T01:59:18.768Z,0
2017-03-10T01:59:59.142Z,0
2017-03-10T02:00:39.553Z,0
2017-03-10T02:01:19.984Z,0
2017-03-10T02:02:00.411Z,0
2017-03-10T02:02:40.827Z,0
2017-03-10T02:03:21.207Z,0
2017-03-10T02:04:01.642Z,0
2017-03-10T02:04:42.029Z,0
2017-03-10T02:05:22.444Z,0
2017-03-10T02:06:02.831Z,0
2017-03-10T02:06:43.258Z,0
2017-03-10T02:07:23.653Z,0
2017-03-10T02:08:04.065Z,0
2017-03-10T02:08:44.489Z,0
2017-03-10T02:09:24.867Z,0
2017-03-10T02:10:05.234Z,0
2017-03-10T02:10:45.646Z,0
2017-03-10T02:13:13.511Z,0
2017-03-10T02:13:53.854Z,0
2017-03-10T02:14:34.253Z,0
2017-03-10T02:15:14.631Z,0
2017-03-10T02:15:55.083Z,0
2017-03-10T02:16:35.534Z,0
2017-03-10T02:17:15.948Z,0
2017-03-10T02:17:56.455Z,0
2017-03-10T02:18:36.913Z,0
2017-03-10T02:19:17.356Z,0
2017-03-10T02:19:57.715Z,0
2017-03-10T02:20:38.127Z,0
2017-03-10T02:21:18.486Z,0
2017-03-10T02:21:58.942Z,0
2017-03-10T02:22:39.319Z,0
2017-03-10T02:23:19.752Z,0
2017-03-10T02:24:00.142Z,0
2017-03-10T02:24:40.510Z,0
2017-03-10T02:25:20.889Z,0
2017-03-10T02:26:01.330Z,0
2017-03-10T02:26:41.688Z,0
2017-03-10T02:27:22.084Z,0
2017-03-10T02:28:02.459Z,0
2017-03-10T02:28:42.852Z,0
2017-03-10T02:29:23.267Z,0
2017-03-10T02:30:03.625Z,0
2017-03-10T02:30:44.027Z,0
2017-03-10T02:33:01.774Z,0
2017-03-10T02:33:42.135Z,0
2017-03-10T02:34:22.577Z,0
2017-03-10T02:35:03.050Z,0
2017-03-10T02:35:43.395Z,0
2017-03-10T02:36:23.811Z,0
2017-03-10T02:37:04.252Z,0
2017-03-10T02:37:44.630Z,0
2017-03-10T02:38:25.026Z,0
2017-03-10T02:39:05.454Z,0
2017-03-10T02:39:45.846Z,0
2017-03-10T02:40:26.272Z,0
2017-03-10T02:41:06.660Z,0
2017-03-10T02:41:47.085Z,0
2017-03-10T02:43:44.675Z,0
2017-03-10T02:44:25.080Z,0
2017-03-10T02:45:05.526Z,0
2017-03-10T02:45:45.931Z,0
2017-03-10T02:46:26.331Z,0
2017-03-10T02:47:06.764Z,0
2017-03-10T02:47:47.226Z,0
2017-03-10T02:48:27.568Z,0
2017-03-10T02:49:07.976Z,0
2017-03-10T02:49:48.377Z,0
2017-03-10T02:50:28.811Z,0
2017-03-10T02:51:09.219Z,0
2017-03-10T02:51:49.655Z,0
2017-03-10T02:52:30.053Z,0
2017-03-10T02:53:11.118Z,0
2017-03-10T02:53:51.487Z,0
2017-03-10T02:54:31.909Z,0
2017-03-10T02:55:12.303Z,0
2017-03-10T02:55:52.846Z,0
2017-03-10T02:56:33.288Z,0
2017-03-10T02:57:13.661Z,0
2017-03-10T02:57:54.027Z,0
2017-03-10T02:58:34.415Z,0
2017-03-10T02:59:14.842Z,0
2017-03-10T02:59:55.256Z,0
2017-03-10T03:02:23.092Z,0
2017-03-10T03:03:03.522Z,0
2017-03-10T03:03:43.927Z,0
2017-03-10T03:04:24.329Z,0
2017-03-10T03:05:04.725Z,0
2017-03-10T03:05:45.089Z,0
2017-03-10T03:06:25.529Z,0
2017-03-10T03:07:05.897Z,0
2017-03-10T03:07:46.256Z,0
2017-03-10T03:08:26.675Z,0
2017-03-10T03:09:07.071Z,0
2017-03-10T03:09:47.511Z,0
2017-03-10T03:10:27.944Z,0
2017-03-10T03:11:08.310Z,0
2017-03-10T03:11:48.731Z,0
2017-03-10T03:12:29.122Z,0
2017-03-10T03:13:09.556Z,0
2017-03-10T03:13:49.975Z,0
2017-03-10T03:14:30.355Z,0
2017-03-10T03:15:10.726Z,0
2017-03-10T03:15:51.122Z,0
2017-03-10T03:16:31.568Z,0
2017-03-10T03:17:11.927Z,0
2017-03-10T03:17:52.354Z,0
2017-03-10T03:18:32.779Z,0
2017-03-10T03:19:13.155Z,0
2017-03-10T03:19:53.562Z,0
2017-03-10T03:20:33.982Z,0
2017-03-10T03:21:14.364Z,0
2017-03-10T03:21:54.817Z,0
2017-03-10T03:22:35.201Z,0
2017-03-10T03:23:15.606Z,0
2017-03-10T03:23:56.005Z,0
2017-03-10T03:26:23.867Z,0
2017-03-10T03:27:04.238Z,0
2017-03-10T03:27:44.643Z,0
2017-03-10T03:28:25.044Z,0
2017-03-10T03:30:52.864Z,0
2017-03-10T03:31:33.304Z,0
2017-03-10T03:32:13.701Z,0
2017-03-10T03:32:54.111Z,0
2017-03-10T03:33:34.511Z,0
2017-03-10T03:34:14.912Z,0
2017-03-10T03:34:55.345Z,0
2017-03-10T03:35:35.883Z,0
2017-03-10T03:37:53.822Z,0
2017-03-10T03:38:34.142Z,0
2017-03-10T03:39:14.582Z,0
2017-03-10T03:39:54.972Z,0
2017-03-10T03:40:35.404Z,0
2017-03-10T03:41:15.740Z,0
2017-03-10T03:41:56.142Z,0
2017-03-10T03:42:36.710Z,0
2017-03-10T03:43:17.071Z,0
2017-03-10T03:43:57.483Z,0
2017-03-10T03:44:37.908Z,0
2017-03-10T03:45:18.287Z,0
2017-03-10T03:45:58.695Z,0
2017-03-10T03:46:39.088Z,0
2017-03-10T03:47:19.514Z,0
2017-03-10T03:47:59.915Z,0
2017-03-10T03:48:40.324Z,0
2017-03-10T03:49:20.731Z,0
2017-03-10T03:50:01.129Z,0
2017-03-10T03:50:41.609Z,0
2017-03-10T03:51:21.977Z,0
2017-03-10T03:52:02.397Z,0
2017-03-10T03:52:42.811Z,0
2017-03-10T03:53:23.277Z,0
2017-03-10T03:54:03.637Z,0
2017-03-10T03:54:43.993Z,0
2017-03-10T03:55:24.392Z,0
2017-03-10T03:56:04.753Z,0
2017-03-10T03:58:02.321Z,0
2017-03-10T03:58:42.721Z,0
2017-03-10T03:59:23.137Z,0
2017-03-10T04:00:03.523Z,0
2017-03-10T04:00:43.959Z,0
2017-03-10T04:01:24.350Z,0
2017-03-10T04:02:04.765Z,0
2017-03-10T04:02:45.198Z,0
2017-03-10T04:03:25.592Z,0
2017-03-10T04:04:05.980Z,0
2017-03-10T04:04:46.451Z,0
2017-03-10T04:05:26.819Z,0
2017-03-10T04:06:07.210Z,0
2017-03-10T04:06:47.797Z,0
2017-03-10T04:07:28.108Z,0
2017-03-10T04:08:08.497Z,0
2017-03-10T04:08:48.890Z,0
2017-03-10T04:09:29.315Z,0
2017-03-10T04:11:57.157Z,0
2017-03-10T04:12:37.581Z,0
2017-03-10T04:13:18.105Z,0
2017-03-10T04:13:58.557Z,0
2017-03-10T04:15:51.052Z,0
2017-03-10T04:16:31.438Z,0
2017-03-10T04:18:44.183Z,0
2017-03-10T04:19:24.480Z,0
2017-03-10T04:20:04.887Z,0
2017-03-10T04:20:45.306Z,0
2017-03-10T04:21:25.702Z,0
2017-03-10T04:22:06.110Z,0
2017-03-10T04:22:46.522Z,0
2017-03-10T04:23:26.901Z,0
2017-03-10T04:24:07.335Z,0
2017-03-10T04:24:47.776Z,0
2017-03-10T04:25:28.169Z,0
2017-03-10T04:26:08.583Z,0
2017-03-10T04:26:49.020Z,0
2017-03-10T04:27:29.424Z,0
2017-03-10T04:28:09.827Z,0
2017-03-10T04:28:50.240Z,0
2017-03-10T04:29:30.641Z,0
2017-03-10T04:30:11.058Z,0
2017-03-10T04:30:51.505Z,0
2017-03-10T04:31:32.042Z,0
2017-03-10T04:32:12.472Z,0
2017-03-10T04:32:52.854Z,0
2017-03-10T04:33:33.242Z,0
2017-03-10T04:34:13.668Z,0
2017-03-10T04:34:54.110Z,0
2017-03-10T04:35:34.526Z,0
2017-03-10T04:36:14.935Z,0
2017-03-10T04:36:55.303Z,0
2017-03-10T04:37:35.741Z,0
2017-03-10T04:39:33.314Z,0
2017-03-10T04:40:13.729Z,0
2017-03-10T04:40:54.149Z,0
2017-03-10T04:41:34.561Z,0
2017-03-10T04:42:14.950Z,0
2017-03-10T04:42:55.361Z,0
2017-03-10T04:43:35.798Z,0
2017-03-10T04:44:16.172Z,0
2017-03-10T04:46:33.902Z,0
2017-03-10T04:47:14.325Z,0
2017-03-10T04:47:54.740Z,0
2017-03-10T04:48:35.154Z,0
2017-03-10T04:49:15.555Z,0
2017-03-10T04:49:55.966Z,0
2017-03-10T04:52:08.664Z,0
2017-03-10T04:52:49.051Z,0
2017-03-10T04:53:29.445Z,0
2017-03-10T04:54:09.851Z,0
2017-03-10T04:54:50.250Z,0
2017-03-10T04:55:30.645Z,0
2017-03-10T04:56:11.050Z,0
2017-03-10T04:58:23.659Z,0
2017-03-10T04:59:04.142Z,0
2017-03-10T04:59:44.520Z,0
2017-03-10T05:00:24.950Z,0
2017-03-10T05:01:05.385Z,0
2017-03-10T05:01:45.733Z,0
2017-03-10T05:03:38.247Z,0
2017-03-10T05:04:18.619Z,0
2017-03-10T05:04:58.995Z,0
2017-03-10T05:05:39.411Z,0
2017-03-10T05:06:19.810Z,0
2017-03-10T05:07:00.227Z,0
2017-03-10T05:07:40.629Z,0
2017-03-10T05:10:08.753Z,0
2017-03-10T05:10:49.197Z,0
2017-03-10T05:11:29.615Z,0
2017-03-10T05:12:10.012Z,0
2017-03-10T05:12:50.354Z,0
2017-03-10T05:15:03.015Z,0
2017-03-10T05:15:43.363Z,0
2017-03-10T05:16:23.792Z,0
2017-03-10T05:17:04.244Z,0
2017-03-10T05:17:44.655Z,0
2017-03-10T05:18:25.063Z,0
2017-03-10T05:19:05.500Z,0
2017-03-10T05:19:45.879Z,0
2017-03-10T05:20:26.279Z,0
2017-03-10T05:21:06.723Z,0
2017-03-10T05:21:47.148Z,0
2017-03-10T05:22:27.548Z,0
2017-03-10T05:23:07.940Z,0
2017-03-10T05:23:48.365Z,0
2017-03-10T05:24:28.756Z,0
2017-03-10T05:25:09.171Z,0
2017-03-10T05:25:49.660Z,0
2017-03-10T05:26:29.954Z,0
2017-03-10T05:27:10.329Z,0
2017-03-10T05:27:50.755Z,0
2017-03-10T05:28:31.118Z,0
2017-03-10T05:29:11.543Z,0
2017-03-10T05:29:51.971Z,0
2017-03-10T05:30:32.372Z,0
2017-03-10T05:31:12.747Z,0
2017-03-10T05:31:53.181Z,0
2017-03-10T05:32:33.597Z,0
2017-03-10T05:33:14.035Z,0
2017-03-10T05:33:54.425Z,0
2017-03-10T05:34:34.833Z,0
2017-03-10T05:35:15.203Z,0
2017-03-10T05:35:55.619Z,0
2017-03-10T05:36:36.021Z,0
2017-03-10T05:37:16.432Z,0
2017-03-10T05:37:56.868Z,0
2017-03-10T05:38:37.256Z,0
2017-03-10T05:39:17.656Z,0
2017-03-10T05:39:58.052Z,0
2017-03-10T05:40:38.465Z,0
2017-03-10T05:41:18.890Z,0
2017-03-10T05:41:59.284Z,0
2017-03-10T05:42:39.707Z,0
2017-03-10T05:43:20.072Z,0
2017-03-10T05:44:00.510Z,0
2017-03-10T05:44:40.916Z,0
2017-03-10T05:45:21.314Z,0
2017-03-10T05:46:01.723Z,0
2017-03-10T05:46:42.145Z,0
2017-03-10T05:47:22.589Z,0
2017-03-10T05:48:02.968Z,0
2017-03-10T05:48:43.413Z,0
2017-03-10T05:49:23.826Z,0
2017-03-10T05:50:04.280Z,0
2017-03-10T05:50:44.673Z,0
2017-03-10T05:51:25.127Z,0
2017-03-10T05:52:05.565Z,0
2017-03-10T05:52:45.949Z,0
2017-03-10T05:53:26.353Z,0
2017-03-10T05:54:06.731Z,0
2017-03-10T05:54:47.162Z,0
2017-03-10T05:55:27.598Z,0
2017-03-10T05:56:08.043Z,0
2017-03-10T05:56:48.446Z,0
2017-03-10T05:57:28.865Z,0
2017-03-10T05:58:09.284Z,0
2017-03-10T05:58:49.678Z,0
2017-03-10T05:59:30.079Z,0
2017-03-10T06:00:10.479Z,0
2017-03-10T06:00:50.884Z,0
2017-03-10T06:01:31.292Z,0
2017-03-10T06:02:11.705Z,0
2017-03-10T06:02:52.137Z,0
2017-03-10T06:03:32.516Z,0
2017-03-10T06:04:12.939Z,0
2017-03-10T06:04:53.326Z,0
2017-03-10T06:05:33.730Z,0
2017-03-10T06:06:14.153Z,0
2017-03-10T06:06:54.535Z,0
2017-03-10T06:07:35.505Z,0
2017-03-10T06:08:15.920Z,0
2017-03-10T06:08:56.318Z,0
2017-03-10T06:09:36.744Z,0
2017-03-10T06:10:17.119Z,0
2017-03-10T06:10:57.488Z,0
2017-03-10T06:11:37.914Z,0
2017-03-10T06:12:18.276Z,0
2017-03-10T06:14:13.121Z,0
2017-03-10T06:14:53.585Z,0
2017-03-10T06:15:34.001Z,0
2017-03-10T06:16:14.323Z,0
2017-03-10T06:17:09.429Z,0
2017-03-10T06:17:49.860Z,0
2017-03-10T06:18:36.081Z,0
2017-03-10T06:19:18.172Z,0
2017-03-10T06:19:58.791Z,0
2017-03-10T06:20:39.348Z,0
2017-03-10T06:21:26.303Z,0
2017-03-10T06:22:12.478Z,0
2017-03-10T06:22:52.900Z,0
2017-03-10T06:23:33.293Z,0
2017-03-10T06:24:13.728Z,0
2017-03-10T06:24:54.127Z,0
2017-03-10T06:25:34.519Z,0
2017-03-10T06:26:14.947Z,0
2017-03-10T06:26:55.364Z,0
2017-03-10T06:27:37.598Z,0
2017-03-10T06:28:18.054Z,0
2017-03-10T06:28:58.453Z,0
2017-03-10T06:29:38.880Z,0
2017-03-10T06:30:19.311Z,0
2017-03-10T06:30:59.681Z,0
2017-03-10T06:31:40.078Z,0
2017-03-10T06:32:20.501Z,0
2017-03-10T06:33:00.958Z,0
2017-03-10T06:33:41.353Z,0
2017-03-10T06:34:21.764Z,0
2017-03-10T06:35:02.145Z,0
2017-03-10T06:36:54.669Z,0
2017-03-10T06:37:35.032Z,0
2017-03-10T06:38:15.433Z,0
2017-03-10T06:38:55.800Z,0
2017-03-10T06:39:36.212Z,0
2017-03-10T06:40:16.579Z,0
2017-03-10T06:40:57.020Z,0
2017-03-10T06:41:38.191Z,0
2017-03-10T06:42:18.660Z,0
2017-03-10T06:42:59.030Z,0
2017-03-10T06:43:39.461Z,0
2017-03-10T06:45:57.202Z,0
2017-03-10T06:48:24.972Z,0
2017-03-10T06:49:05.408Z,0
2017-03-10T06:49:45.789Z,0
2017-03-10T06:50:26.252Z,0
2017-03-10T06:51:06.655Z,0
2017-03-10T06:51:47.071Z,0
2017-03-10T06:52:27.479Z,0
2017-03-10T06:53:07.880Z,0
2017-03-10T06:53:48.305Z,0
2017-03-10T06:54:28.688Z,0
2017-03-10T06:56:21.387Z,0
2017-03-10T06:57:01.769Z,0
2017-03-10T06:57:42.186Z,0
2017-03-10T06:58:22.620Z,0
2017-03-10T06:59:03.174Z,0
2017-03-10T07:00:55.680Z,0
2017-03-10T07:01:36.324Z,0
2017-03-10T07:02:16.773Z,0
2017-03-10T07:02:57.220Z,0
2017-03-10T07:04:54.818Z,0
2017-03-10T07:05:35.194Z,0
2017-03-10T07:06:15.592Z,0
2017-03-10T07:06:56.078Z,0
2017-03-10T07:07:36.475Z,0
2017-03-10T07:08:16.925Z,0
2017-03-10T07:10:34.979Z,0
2017-03-10T07:11:15.384Z,0
2017-03-10T07:11:55.790Z,0
2017-03-10T07:12:36.273Z,0
2017-03-10T07:13:16.648Z,0
2017-03-10T07:13:57.079Z,0
2017-03-10T07:14:37.505Z,0
2017-03-10T07:15:18.004Z,0
2017-03-10T07:15:58.354Z,0
2017-03-10T07:16:38.834Z,0
2017-03-10T07:17:19.251Z,0
2017-03-10T07:17:59.656Z,0
2017-03-10T07:18:40.056Z,0
2017-03-10T07:19:20.473Z,0
2017-03-10T07:20:00.871Z,0
2017-03-10T07:20:41.271Z,0
2017-03-10T07:21:21.656Z,0
2017-03-10T07:22:02.065Z,0
2017-03-10T07:22:42.514Z,0
2017-03-10T07:23:22.915Z,0
2017-03-10T07:24:03.298Z,0
2017-03-10T07:24:43.723Z,0
2017-03-10T07:25:24.142Z,0
2017-03-10T07:26:04.528Z,0
2017-03-10T07:26:44.912Z,0
2017-03-10T07:27:25.348Z,0
2017-03-10T07:28:05.777Z,0
2017-03-10T07:28:46.183Z,0
2017-03-10T07:29:26.583Z,0
2017-03-10T07:31:44.406Z,0
2017-03-10T07:32:24.761Z,0
2017-03-10T07:33:05.182Z,0
2017-03-10T07:33:45.587Z,0
2017-03-10T07:34:26.011Z,0
2017-03-10T07:35:06.426Z,0
2017-03-10T07:35:46.836Z,0
2017-03-10T07:36:27.239Z,0
2017-03-10T07:37:07.647Z,0
2017-03-10T07:37:48.052Z,0
2017-03-10T07:38:28.477Z,0
2017-03-10T07:39:08.882Z,0
2017-03-10T07:39:49.246Z,0
2017-03-10T07:40:29.700Z,0
2017-03-10T07:41:10.141Z,0
2017-03-10T07:41:50.583Z,0
2017-03-10T07:42:31.140Z,0
2017-03-10T07:43:11.601Z,0
2017-03-10T07:45:04.092Z,0
2017-03-10T07:45:44.533Z,0
2017-03-10T07:46:24.897Z,0
2017-03-10T07:47:05.316Z,0
2017-03-10T07:47:45.711Z,0
2017-03-10T07:48:26.123Z,0
2017-03-10T07:49:06.496Z,0
2017-03-10T07:49:46.980Z,0
2017-03-10T07:50:27.401Z,0
2017-03-10T07:51:07.835Z,0
2017-03-10T07:51:48.369Z,0
2017-03-10T07:52:28.733Z,0
2017-03-10T07:53:09.178Z,0
2017-03-10T07:53:49.586Z,0
2017-03-10T07:54:30.000Z,0
2017-03-10T07:55:10.445Z,0
2017-03-10T07:55:50.871Z,0
2017-03-10T07:57:48.425Z,0
2017-03-10T07:58:28.835Z,0
2017-03-10T07:59:09.302Z,0
2017-03-10T07:59:49.734Z,0
2017-03-10T08:00:30.236Z,0
2017-03-10T08:01:10.675Z,0
2017-03-10T08:01:51.029Z,0
2017-03-10T08:02:31.438Z,0
2017-03-10T08:03:11.891Z,0
2017-03-10T08:05:09.517Z,0
2017-03-10T08:05:49.858Z,0
2017-03-10T08:06:30.322Z,0
2017-03-10T08:07:10.702Z,0
2017-03-10T08:07:51.101Z,0
2017-03-10T08:08:31.475Z,0
2017-03-10T08:09:11.864Z,0
2017-03-10T08:09:52.320Z,0
2017-03-10T08:10:32.739Z,0
2017-03-10T08:11:13.192Z,0
2017-03-10T08:11:54.431Z,0
2017-03-10T08:12:34.838Z,0
2017-03-10T08:14:27.426Z,0
2017-03-10T08:15:07.888Z,0
2017-03-10T08:15:48.314Z,0
2017-03-10T08:16:28.734Z,0
2017-03-10T08:17:09.181Z,0
2017-03-10T08:17:49.633Z,0
2017-03-10T08:18:30.039Z,0
2017-03-10T08:19:10.498Z,0
2017-03-10T08:19:50.948Z,0
2017-03-10T08:20:31.350Z,0
2017-03-10T08:21:11.770Z,0
2017-03-10T08:21:52.170Z,0
2017-03-10T08:22:32.546Z,0
2017-03-10T08:23:12.993Z,0
2017-03-10T08:25:40.875Z,0
2017-03-10T08:26:21.356Z,0
2017-03-10T08:27:02.113Z,0
2017-03-10T08:27:42.511Z,0
2017-03-10T08:28:22.985Z,0
2017-03-10T08:29:03.380Z,0
2017-03-10T08:29:43.813Z,0
2017-03-10T08:30:24.258Z,0
2017-03-10T08:31:04.653Z,0
2017-03-10T08:31:45.131Z,0
2017-03-10T08:32:25.564Z,0
2017-03-10T08:33:05.984Z,0
2017-03-10T08:33:46.369Z,0
2017-03-10T08:34:26.854Z,0
2017-03-10T08:35:10.096Z,0
2017-03-10T08:35:52.335Z,0
2017-03-10T08:36:33.196Z,0
2017-03-10T08:37:13.695Z,0
2017-03-10T08:37:54.077Z,0
2017-03-10T08:38:35.315Z,0
2017-03-10T08:39:15.703Z,0
2017-03-10T08:39:56.243Z,0
2017-03-10T08:40:36.675Z,0
2017-03-10T08:41:17.069Z,0
2017-03-10T08:41:57.529Z,0
2017-03-10T08:42:37.977Z,0
2017-03-10T08:43:18.386Z,0
2017-03-10T08:43:58.786Z,0
2017-03-10T08:44:39.231Z,0
2017-03-10T08:45:19.807Z,0
2017-03-10T08:46:00.188Z,0
2017-03-10T08:46:40.630Z,0
2017-03-10T08:47:21.096Z,0
2017-03-10T08:48:01.749Z,0
2017-03-10T08:48:43.056Z,0
2017-03-10T08:49:23.485Z,0
2017-03-10T08:50:03.986Z,0
2017-03-10T08:50:45.158Z,0
2017-03-10T08:51:25.672Z,0
2017-03-10T08:52:06.142Z,0
2017-03-10T08:52:46.660Z,0
2017-03-10T08:53:27.660Z,0
2017-03-10T08:54:08.131Z,0
2017-03-10T08:54:48.681Z,0
2017-03-10T08:55:29.089Z,0
2017-03-10T08:56:09.541Z,0
2017-03-10T08:56:49.963Z,0
2017-03-10T08:57:30.420Z,0
2017-03-10T08:58:10.872Z,0
2017-03-10T08:58:51.345Z,0
2017-03-10T08:59:31.819Z,0
2017-03-10T09:00:12.289Z,0
2017-03-10T09:00:52.817Z,0
2017-03-10T09:01:33.263Z,0
2017-03-10T09:02:13.671Z,0
2017-03-10T09:02:54.141Z,0
2017-03-10T09:03:34.626Z,0
2017-03-10T09:04:15.119Z,0
2017-03-10T09:04:55.657Z,0
2017-03-10T09:05:36.118Z,0
2017-03-10T09:06:16.591Z,0
2017-03-10T09:06:57.017Z,0
2017-03-10T09:07:38.134Z,0
2017-03-10T09:08:18.572Z,0
2017-03-10T09:08:59.075Z,0
2017-03-10T09:09:39.507Z,0
2017-03-10T09:10:19.945Z,0
2017-03-10T09:12:12.452Z,0
2017-03-10T09:12:53.023Z,0
2017-03-10T09:13:33.421Z,0
2017-03-10T09:14:13.957Z,0
2017-03-10T09:14:54.341Z,0
2017-03-10T09:15:34.833Z,0
2017-03-10T09:16:15.278Z,0
2017-03-10T09:16:55.712Z,0
2017-03-10T09:17:36.187Z,0
2017-03-10T09:18:16.631Z,0
2017-03-10T09:18:57.135Z,0
2017-03-10T09:21:25.447Z,0
2017-03-10T09:22:05.955Z,0
2017-03-10T09:22:46.377Z,0
2017-03-10T09:23:26.797Z,0
2017-03-10T09:40:47.466Z,1016.99
2017-03-10T09:41:27.935Z,1016.98
2017-03-10T09:42:08.453Z,1016.99
2017-03-10T09:42:48.917Z,1017.02
2017-03-10T09:43:29.328Z,1017.03
2017-03-10T09:44:09.811Z,1017.05
2017-03-10T09:44:50.269Z,1017.05
2017-03-10T09:45:30.734Z,1017.04
2017-03-10T09:46:11.319Z,1017.06
2017-03-10T09:46:56.707Z,1017.06
2017-03-10T09:47:39.879Z,1017.06
2017-03-10T09:48:22.193Z,1017.02
2017-03-10T09:49:08.846Z,1017.02
2017-03-10T09:49:53.678Z,1017.02
2017-03-10T09:50:38.034Z,1017.02
2017-03-10T09:51:21.233Z,1017
2017-03-10T09:52:02.162Z,1017.03
2017-03-10T09:52:52.714Z,1017.09
2017-03-10T09:53:33.301Z,1017.09
2017-03-10T09:54:13.913Z,1017.03
2017-03-10T09:54:54.324Z,1017.11
2017-03-10T09:55:34.834Z,1017.14
2017-03-10T09:56:15.345Z,1017.15
2017-03-10T09:56:55.943Z,1017.17
2017-03-10T09:57:36.500Z,1017.26
2017-03-10T09:58:17.037Z,1017.15
2017-03-10T09:58:57.589Z,1017.24
2017-03-10T09:59:38.105Z,1017.2
2017-03-10T10:00:18.633Z,1017.27
2017-03-10T10:00:59.322Z,1017.19
2017-03-10T10:01:39.841Z,1017.12
2017-03-10T10:02:20.318Z,1017.15
2017-03-10T10:03:00.825Z,1017.25
2017-03-10T10:03:41.339Z,1017.26
2017-03-10T10:04:21.833Z,1017.15
2017-03-10T10:05:02.322Z,1017.06
2017-03-10T10:05:42.747Z,1017.06
2017-03-10T10:06:23.250Z,1017.06
2017-03-10T10:07:03.704Z,1017.06
2017-03-10T10:07:44.227Z,1017.06
2017-03-10T10:08:24.618Z,1017.06
2017-03-10T10:09:05.025Z,1017.06
2017-03-10T10:09:45.527Z,1017.06
2017-03-10T10:10:25.954Z,1017.06
2017-03-10T10:11:06.411Z,1017.06
2017-03-10T10:11:46.815Z,1017.06
2017-03-10T10:12:27.300Z,1017.06
2017-03-10T10:13:07.729Z,1017.06
2017-03-10T10:13:48.293Z,1017.06
2017-03-10T10:14:28.724Z,1017.06
2017-03-10T10:15:09.202Z,1017.06
2017-03-10T10:15:49.620Z,1017.06
2017-03-10T10:16:30.043Z,1017.06
2017-03-10T10:17:10.445Z,1017.06
2017-03-10T10:17:50.904Z,1017.06
2017-03-10T10:18:31.358Z,1017.06
2017-03-10T10:19:11.797Z,1017.06
2017-03-10T10:19:52.251Z,1017.06
2017-03-10T10:20:32.633Z,1017.06
2017-03-10T10:21:13.149Z,1017.06
2017-03-10T10:21:53.563Z,1017.06
2017-03-10T10:22:34.068Z,1017.06
2017-03-10T10:23:14.541Z,1017.06
2017-03-10T10:23:55.003Z,1017.06
2017-03-10T10:24:35.407Z,1017.06
2017-03-10T10:25:15.899Z,1017.06
2017-03-10T10:25:56.328Z,1017.06
2017-03-10T10:26:36.779Z,1017.06
2017-03-10T10:27:17.210Z,1017.06
2017-03-10T10:29:14.867Z,0
2017-03-10T10:45:18.189Z,1018.24
2017-03-10T10:45:58.652Z,1018.31
2017-03-10T10:46:39.105Z,1018.3
2017-03-10T10:47:19.780Z,1018.36
2017-03-10T10:48:00.357Z,1018.41
2017-03-10T10:48:40.933Z,1018.37
2017-03-10T10:49:21.432Z,1018.37
2017-03-10T10:50:01.901Z,1018.39
2017-03-10T10:50:42.363Z,1018.4
2017-03-10T10:51:22.919Z,1018.44
2017-03-10T10:52:03.952Z,1018.47
2017-03-10T10:52:44.448Z,1018.43
2017-03-10T10:53:25.160Z,1018.45
2017-03-10T10:54:05.630Z,1018.5
2017-03-10T10:54:46.119Z,1018.5
2017-03-10T10:55:26.614Z,1018.58
2017-03-10T10:56:07.066Z,1018.63
2017-03-10T10:56:47.562Z,1018.71
2017-03-10T10:57:28.117Z,1018.73
2017-03-10T10:58:08.717Z,1018.77
2017-03-10T10:58:49.488Z,1018.73
2017-03-10T10:59:30.223Z,1018.72
2017-03-10T11:00:10.829Z,1018.71
2017-03-10T11:00:51.381Z,1018.71
2017-03-10T11:01:31.840Z,1018.71
2017-03-10T11:02:12.356Z,1018.77
2017-03-10T11:02:52.939Z,1018.75
2017-03-10T11:03:33.477Z,1018.73
2017-03-10T11:04:14.221Z,1018.71
2017-03-10T11:04:54.762Z,1018.73
2017-03-10T11:05:35.222Z,1018.72
2017-03-10T11:06:15.863Z,1018.72
2017-03-10T11:06:56.340Z,1018.69
2017-03-10T11:07:36.848Z,1018.64
2017-03-10T11:08:18.289Z,1018.7
2017-03-10T11:08:58.819Z,1018.73
2017-03-10T11:09:39.214Z,1018.72
2017-03-10T11:10:19.700Z,1018.77
2017-03-10T11:11:00.286Z,1018.85
2017-03-10T11:11:40.795Z,1018.77
2017-03-10T11:12:22.124Z,1018.72
2017-03-10T11:13:02.610Z,1018.64
2017-03-10T11:13:43.149Z,1018.62
2017-03-10T11:14:23.601Z,1018.73